Fillmore, Indiana
Current Conditions -  °F | °C
As of 9:35 AM on Thursday 29 Jan 2015 (Local Time) from K4I7 Reporting Station
Overcast Overcast  
Wind Chill: 36°   Ceiling: 2500
Heat Index: 43°   Visibility: 10mi
Dew Point: 32°   Wind: 13mph
Humidity: 66%   Direction: 260°W
Pressure: 29.8"   Gusts: 22mph
Location:  39.67°N, 86.75°W
Report Text: K4I7 291435Z AUTO 26011G19KT 10SM OVC025 06/00 A2980 RMK AO2
Loading
Personal Weather Stations






























Interactive Weather Map New forecast layout! Learn more

10-Day Weather Forecast

Advertisements
Track Severe Weather on mobile